福岡空港の過去48時間の天気

福岡空港 (Fukuoka)

現在時刻: 7/18 13:56 JST (7/18 04:56 UTC) 以下の時間は現地時間です。

過去48時間のMETAR気象情報
時間 風向 風速(m/s) 視程 気温(℃) 湿度(%) 気圧(hPa) 天気現象
18 13:30 北北西 5 10km以上 33 53 1010
18 13:00 北西 5 10km以上 33 56 1011
18 12:30 北北西 5 10km以上 32 59 1011
18 12:00 北西 5 10km以上 33 56 1011
18 11:30 北西 5 10km以上 32 56 1011
18 11:00 北西 5 10km以上 32 56 1011
18 10:30 西北西 3 9000m 32 56 1011
18 10:00 北西 4 9000m 31 59 1011
18 09:30 不定 2 9000m 31 62 1011
18 09:00 不定 1 9000m 31 62 1011
18 08:30 静穏 0 8000m 30 66 1011
18 08:00 不定 1 8000m 29 70 1011
18 07:30 南南東 2 8000m 28 74 1012
18 07:00 南東 2 8000m 28 74 1012
18 06:30 南東 2 8000m 27 79 1011
18 06:00 東南東 1 8000m 27 74 1011
18 05:30 2 10km以上 26 79 1011
18 05:00 1 8000m 27 74 1011
18 04:30 不定 1 8000m 27 74 1011
18 04:00 不定 1 10km以上 27 74 1011
18 03:30 1 10km以上 27 74 1011
18 03:00 北東 2 10km以上 27 74 1011
18 02:30 東北東 2 10km以上 27 74 1011
18 02:00 北東 2 10km以上 27 74 1011
18 01:30 北北西 2 10km以上 28 70 1011
18 01:00 東北東 2 10km以上 28 70 1011
18 00:30 北東 2 10km以上 28 70 1011
18 00:00 北東 2 10km以上 28 70 1011
17 23:30 東北東 2 10km以上 28 70 1011
17 23:00 北東 2 10km以上 28 70 1011
17 22:30 北北東 3 10km以上 28 74 1011
17 22:00 北北東 2 10km以上 29 70 1011
17 21:30 2 10km以上 29 70 1011
17 21:00 3 10km以上 29 70 1011
17 20:30 2 9000m 29 70 1011
17 20:00 北北西 4 9000m 29 66 1011
17 19:30 北北西 3 10km以上 30 62 1011
17 19:00 北北西 3 10km以上 30 62 1010
17 18:30 北北西 4 10km以上 30 62 1010
17 18:00 3 10km以上 31 59 1010
17 17:30 北北西 4 10km以上 31 55 1010
17 17:00 北西 4 10km以上 32 52 1010
17 16:30 北西 5 10km以上 32 52 1010
17 16:00 北西 5 10km以上 33 46 1010
17 15:30 北西 5 10km以上 33 46 1010
17 15:00 北西 5 10km以上 33 46 1011
17 14:30 北西 4 10km以上 33 46 1011
17 14:00 北西 5 10km以上 33 49 1011
17 13:30 5 10km以上 33 49 1011
17 13:00 5 10km以上 33 53 1011
17 12:30 北北西 4 10km以上 34 50 1011
17 12:00 西北西 4 10km以上 33 53 1011
17 11:30 北北西 4 10km以上 33 53 1012
17 11:00 北北西 3 10km以上 33 53 1012
17 10:30 3 10km以上 32 56 1012
17 10:00 北西 2 10km以上 32 56 1012
17 09:30 不定 1 10km以上 31 62 1012
17 09:00 不定 1 10km以上 30 62 1012
17 08:30 南東 2 10km以上 29 70 1013
17 08:00 2 9000m 29 66 1013
17 07:30 不定 1 10km以上 28 74 1013
17 07:00 不定 1 10km以上 28 70 1013
17 06:30 不定 1 10km以上 27 74 1013
17 06:00 不定 1 10km以上 27 74 1012
17 05:30 不定 1 10km以上 26 74 1012
17 05:00 不定 1 10km以上 27 70 1012
17 04:30 東北東 1 10km以上 27 70 1012
17 04:00 不定 1 10km以上 27 70 1012
17 03:30 東北東 1 10km以上 27 70 1012
17 03:00 北東 1 10km以上 27 70 1012
17 02:30 不定 1 10km以上 27 70 1012
17 02:00 不定 1 10km以上 27 70 1012
17 01:30 東北東 2 10km以上 28 66 1012
17 01:00 北東 2 10km以上 28 66 1012
17 00:30 北東 2 10km以上 28 66 1012
17 00:00 東北東 2 10km以上 28 66 1012
16 23:30 東北東 2 10km以上 29 66 1012
16 23:00 北西 2 10km以上 29 66 1012
16 22:30 2 10km以上 29 66 1012
16 22:00 北北西 3 10km以上 29 66 1012
16 21:30 不定 1 10km以上 29 66 1012
16 21:00 北西 2 10km以上 29 66 1012
16 20:30 北西 3 10km以上 30 62 1012
16 20:00 2 10km以上 30 59 1012
16 19:30 3 10km以上 30 59 1012
16 19:00 西北西 3 10km以上 30 62 1011
16 18:30 北北西 3 10km以上 30 62 1011
16 18:00 北北西 4 10km以上 31 55 1011
16 17:30 北北西 4 10km以上 31 55 1011
16 17:00 北北西 4 10km以上 32 56 1011
16 16:30 北西 4 10km以上 31 59 1011
16 16:00 北西 4 10km以上 32 56 1011
16 15:30 北西 5 10km以上 33 49 1011
16 15:00 北北西 5 10km以上 33 49 1011
16 14:30 北西 5 10km以上 33 53 1011
16 14:00 北西 5 10km以上 33 56 1011
RJFF 180430Z 34009KT 9999 FEW035 BKN/// 33/22 Q1010
RJFF 180400Z 32010KT 9999 FEW040 BKN/// 33/23 Q1011 RMK 1CU040 A2986
RJFF 180330Z 34010KT 300V010 9999 FEW040 32/23 Q1011 RMK 1CU040 A2987
RJFF 180300Z 32009KT 9999 FEW035 SCT/// 33/23 Q1011
RJFF 180230Z 31009KT 280V340 9999 FEW035 SCT/// 32/22 Q1011
RJFF 180200Z 31009KT 9999 FEW040 SCT/// 32/22 Q1011 RMK 1CU040 A2987
RJFF 180130Z 30006KT 260V350 9000 FEW035 SCT/// 32/22 Q1011
RJFF 180100Z 32008KT 270V340 9000 FEW035 SCT/// 31/22 Q1011 RMK 1CU035 A2987
RJFF 180030Z VRB03KT 9000 FEW040 SCT/// 31/23 Q1011
RJFF 180000Z VRB02KT 9000 FEW040 BKN/// 31/23 Q1011
RJFF 172330Z 00000KT 8000 FEW040 SCT/// 30/23 Q1011
RJFF 172300Z VRB01KT 8000 FEW040 SCT/// 29/23 Q1011
RJFF 172230Z 16003KT 080V200 8000 FEW040 SCT/// 28/23 Q1012 RMK 1CU040 A2989
RJFF 172200Z 14003KT 8000 FEW040 SCT/// 28/23 Q1012
RJFF 172130Z 13003KT 110V170 8000 FEW040 SCT/// 27/23 Q1011
RJFF 172100Z 11002KT 8000 FEW040 BKN/// 27/22 Q1011
RJFF 172030Z AUTO 08003KT 9999 NCD 26/22 Q1011 RMK A2988
RJFF 172000Z AUTO 10002KT 8000 NCD 27/22 Q1011 RMK A2988
RJFF 171930Z AUTO VRB02KT 8000 NCD 27/22 Q1011 RMK A2988
RJFF 171900Z AUTO VRB02KT 9999 NCD 27/22 Q1011 RMK A2988
RJFF 171830Z AUTO 08002KT 9999 NCD 27/22 Q1011 RMK A2987
RJFF 171800Z AUTO 05003KT 9999 NCD 27/22 Q1011 RMK A2987
RJFF 171730Z AUTO 06003KT 9999 NCD 27/22 Q1011 RMK A2987
RJFF 171700Z AUTO 05003KT 020V090 9999 NCD 27/22 Q1011 RMK A2987
RJFF 171630Z AUTO 34003KT 9999 NCD 28/22 Q1011 RMK A2987
RJFF 171600Z AUTO 06003KT 9999 NCD 28/22 Q1011 RMK A2987
RJFF 171530Z AUTO 05003KT 9999 NCD 28/22 Q1011 RMK A2987
RJFF 171500Z AUTO 05003KT 9999 NCD 28/22 Q1011 RMK A2987
RJFF 171430Z AUTO 07003KT 9999 NCD 28/22 Q1011 RMK A2987
RJFF 171400Z AUTO 05004KT 010V080 9999 NSC 28/22 Q1011 RMK A2987
RJFF 171330Z 03005KT 9999 FEW040 28/23 Q1011 RMK 1CU040 A2988
RJFF 171300Z 03003KT 360V070 9999 FEW040 29/23 Q1011 RMK 1CU040 A2988
RJFF 171230Z 35004KT 310V040 9999 FEW040 SCT060 29/23 Q1011 RMK 1CU040 4SC060 A2987
RJFF 171200Z 35005KT 310V050 9999 FEW040 BKN060 29/23 Q1011 RMK 1CU040 5SC060 A2987
RJFF 171130Z 35004KT 320V030 9000 FEW040 SCT060 29/23 Q1011 RMK 1CU040 3SC060 A2987
RJFF 171100Z 33007KT 300V010 9000 FEW040 29/22 Q1011 RMK 1CU040 A2986
RJFF 171030Z 33005KT 9999 FEW040 SCT060 30/22 Q1011 RMK 1CU040 4SC060 A2985
RJFF 171000Z 34006KT 310V030 9999 FEW040 30/22 Q1010 RMK 1CU040 A2985
RJFF 170930Z 34007KT 9999 FEW040 30/22 Q1010 RMK 1CU040 A2984
RJFF 170900Z 35006KT 310V050 9999 FEW040 SCT/// 31/22 Q1010 RMK 1CU040 A2984
RJFF 170830Z 33008KT 9999 FEW040 SCT/// 31/21 Q1010 RMK 1CU040 A2984
RJFF 170800Z 32007KT 280V350 9999 FEW040 BKN/// 32/21 Q1010 RMK 1CU040 A2985
RJFF 170730Z 32009KT 9999 FEW040 32/21 Q1010 RMK 1CU040 A2985
RJFF 170700Z 31009KT 9999 FEW040 33/20 Q1010 RMK 1CU040 A2985
RJFF 170630Z 32009KT 9999 FEW040 33/20 Q1010 RMK 1CU040 A2985
RJFF 170600Z 31010KT 270V330 9999 FEW040 33/20 Q1011 RMK 1CU040 A2986
RJFF 170530Z 32008KT 280V350 9999 FEW040 33/20 Q1011 RMK 1CU040 A2986
RJFF 170500Z 32009KT 280V350 9999 FEW040 33/21 Q1011 RMK 1CU040 A2986
RJFF 170430Z 35010KT 9999 FEW040 33/21 Q1011 RMK 1CU040 A2986
RJFF 170400Z 35009KT 320V040 9999 FEW040 33/22 Q1011 RMK 1CU040 A2987
RJFF 170330Z 34008KT 300V040 9999 FEW045 34/22 Q1011 RMK 1CU045 A2987
RJFF 170300Z 30008KT 270V330 9999 FEW040 33/22 Q1011 RMK 1CU040 A2988
RJFF 170230Z 34007KT 300V010 9999 FEW030 33/22 Q1012 RMK 1CU030 A2988
RJFF 170200Z 33006KT 270V020 9999 FEW030 33/22 Q1012 RMK 1CU030 A2989
RJFF 170130Z VRB05KT 9999 FEW030 SCT035 32/22 Q1012 RMK 1CU030 3CU035 A2989
RJFF 170100Z 32004KT 240V040 9999 FEW030 SCT035 32/22 Q1012 RMK 1CU030 3CU035 A2989
RJFF 170030Z VRB02KT 9999 FEW030 SCT035 31/23 Q1012 RMK 2CU030 4CU035 A2990
RJFF 170000Z VRB02KT 9999 FEW025 30/22 Q1012 RMK 1CU025 A2991
RJFF 162330Z 14003KT 080V220 9999 FEW025 29/23 Q1013 RMK 1CU025 A2992
RJFF 162300Z 10003KT 360V160 9000 FEW035 29/22 Q1013 RMK 1CU035 A2992
RJFF 162230Z VRB01KT 9999 FEW035 SCT040 28/23 Q1013 RMK 1CU035 4CU040 A2992
RJFF 162200Z VRB01KT 9999 FEW035 BKN040 28/22 Q1013 RMK 1CU035 6CU040 A2992
RJFF 162130Z VRB02KT 9999 FEW035 BKN040 27/22 Q1013 RMK 1CU035 5CU040 A2992
RJFF 162100Z VRB02KT 9999 FEW035 27/22 Q1012 RMK 1CU035 A2991
RJFF 162030Z AUTO VRB01KT 9999 NCD 26/21 Q1012 RMK A2990
RJFF 162000Z AUTO VRB02KT 9999 NCD 27/21 Q1012 RMK A2990
RJFF 161930Z AUTO 06002KT 9999 NCD 27/21 Q1012 RMK A2990
RJFF 161900Z AUTO VRB02KT 9999 NCD 27/21 Q1012 RMK A2990
RJFF 161830Z AUTO 06002KT 9999 NCD 27/21 Q1012 RMK A2989
RJFF 161800Z AUTO 05001KT 9999 NCD 27/21 Q1012 RMK A2989
RJFF 161730Z AUTO VRB01KT 9999 NCD 27/21 Q1012 RMK A2990
RJFF 161700Z AUTO VRB01KT 9999 NCD 27/21 Q1012 RMK A2990
RJFF 161630Z AUTO 07003KT 9999 NCD 28/21 Q1012 RMK A2989
RJFF 161600Z AUTO 05003KT 9999 NCD 28/21 Q1012 RMK A2990
RJFF 161530Z AUTO 05004KT 9999 NCD 28/21 Q1012 RMK A2989
RJFF 161500Z AUTO 06004KT 9999 NCD 28/21 Q1012 RMK A2989
RJFF 161430Z AUTO 07004KT 9999 NSC 29/22 Q1012 RMK A2989
RJFF 161400Z AUTO 32003KT 9999 NSC 29/22 Q1012 RMK A2989
RJFF 161330Z 36004KT 330V060 9999 FEW030 BKN050 29/22 Q1012 RMK 1CU030 5SC050 A2990
RJFF 161300Z 33005KT 300V050 9999 FEW030 SCT050 29/22 Q1012 RMK 1CU030 3SC050 A2990
RJFF 161230Z VRB02KT 9999 FEW030 29/22 Q1012 RMK 1CU030 A2990
RJFF 161200Z 32004KT 9999 FEW030 29/22 Q1012 RMK 1CU030 A2990
RJFF 161130Z 31006KT 270V340 9999 FEW030 BKN060 30/22 Q1012 RMK 1CU030 5SC060 A2989
RJFF 161100Z 35004KT 310V030 9999 FEW030 SCT060 30/21 Q1012 RMK 1CU030 4SC060 A2989
RJFF 161030Z 35005KT 310V040 9999 FEW030 BKN060 30/21 Q1012 RMK 1CU030 5SC060 A2989
RJFF 161000Z 30005KT 270V340 9999 FEW030 SCT045 30/22 Q1011 RMK 1CU030 3CU045 A2988
RJFF 160930Z 34006KT 310V020 9999 FEW030 SCT045 30/22 Q1011 RMK 1CU030 3CU045 A2987
RJFF 160900Z 34008KT 9999 FEW030 31/21 Q1011 RMK 1CU030 A2987
RJFF 160830Z 33007KT 9999 FEW030 31/21 Q1011 RMK 1CU030 A2986
RJFF 160800Z 33007KT 9999 FEW030 32/22 Q1011 RMK 1CU030 A2986
RJFF 160730Z 32008KT 9999 FEW030 31/22 Q1011 RMK 1CU030 A2987
RJFF 160700Z 31007KT 270V360 9999 FEW030 32/22 Q1011 RMK 1CU030 A2987
RJFF 160630Z 32010KT 280V350 9999 FEW030 33/21 Q1011 RMK 1CU030 A2987
RJFF 160600Z 34009KT 9999 FEW030 33/21 Q1011 RMK 1CU030 A2987
RJFF 160530Z 32009KT 290V350 9999 FEW030 33/22 Q1011 RMK 1CU030 A2987
RJFF 160500Z 31009KT 9999 FEW030 33/23 Q1011 RMK 1CU030 A2987